Time;durP1;ratioP1;P1;durP2;ratioP2;P2;SDS_P1;SDS_P2;PMS_P1;PMS_P2;Temp;Humidity;BMP_temperature;BMP_pressure;BME280_temperature;BME280_humidity;BME280_pressure;Samples;Min_cycle;Max_cycle;Signal;HPM_P1;HPM_P2
2022/01/11 00:02:16;;;;;;;34.13;26.67;;;2.50;99.90;;;;;;5047608;28;20490;-64
2022/01/11 00:04:43;;;;;;;35.33;23.90;;;2.40;99.90;;;;;;5046840;28;20480;-64
2022/01/11 00:07:13;;;;;;;38.63;25.47;;;2.30;99.90;;;;;;5054618;28;20494;-64
2022/01/11 00:09:42;;;;;;;38.80;26.17;;;2.30;99.90;;;;;;5053889;28;20846;-63
2022/01/11 00:12:10;;;;;;;36.73;25.13;;;2.30;99.90;;;;;;5048021;28;20510;-64
2022/01/11 00:14:39;;;;;;;40.67;25.93;;;2.40;99.90;;;;;;5053920;28;20452;-64
2022/01/11 00:17:06;;;;;;;34.90;25.33;;;2.50;99.90;;;;;;5046864;28;20460;-64
2022/01/11 00:19:34;;;;;;;40.37;24.60;;;2.50;99.90;;;;;;5054650;28;20459;-64
2022/01/11 00:22:03;;;;;;;35.50;24.37;;;2.60;99.90;;;;;;5064339;28;20493;-64
2022/01/11 00:24:30;;;;;;;33.80;23.37;;;2.60;99.90;;;;;;5052196;28;20524;-66
2022/01/11 00:26:59;;;;;;;35.43;26.67;;;2.40;99.90;;;;;;5047131;28;20447;-60
2022/01/11 00:29:26;;;;;;;37.87;25.77;;;2.30;99.90;;;;;;5046640;28;20467;-66
2022/01/11 00:31:56;;;;;;;41.00;26.70;;;2.30;99.90;;;;;;5047964;28;21013;-64
2022/01/11 00:34:25;;;;;;;40.20;26.30;;;2.30;99.90;;;;;;5048320;28;20448;-66
2022/01/11 00:36:52;;;;;;;37.07;25.07;;;2.30;99.90;;;;;;5048204;28;20436;-65
2022/01/11 00:39:18;;;;;;;39.47;26.93;;;2.40;99.90;;;;;;5047748;28;20460;-64
2022/01/11 00:41:46;;;;;;;38.03;26.27;;;2.40;99.90;;;;;;5049191;28;20444;-65
2022/01/11 00:44:13;;;;;;;42.07;25.03;;;2.40;99.90;;;;;;5049224;28;20472;-64
2022/01/11 00:46:41;;;;;;;46.00;27.90;;;2.30;99.90;;;;;;5048936;28;20952;-64
2022/01/11 00:49:09;;;;;;;34.83;24.50;;;2.30;99.90;;;;;;5049138;28;20880;-64
2022/01/11 00:51:36;;;;;;;35.73;27.10;;;2.30;99.90;;;;;;5049481;28;20443;-65
2022/01/11 00:54:03;;;;;;;45.03;27.97;;;2.20;99.90;;;;;;5049206;28;20436;-64
2022/01/11 00:56:30;;;;;;;40.30;26.80;;;2.20;99.90;;;;;;5048843;28;20494;-66
2022/01/11 00:58:57;;;;;;;41.83;28.87;;;2.30;99.90;;;;;;5049151;28;20486;-65
2022/01/11 01:01:24;;;;;;;39.70;27.20;;;2.30;99.90;;;;;;5049090;28;20444;-66
2022/01/11 01:03:51;;;;;;;42.93;27.93;;;2.30;99.90;;;;;;5049143;28;20524;-66
2022/01/11 01:06:19;;;;;;;40.13;27.83;;;2.30;99.90;;;;;;5048997;28;21194;-65
2022/01/11 01:08:46;;;;;;;46.03;30.07;;;2.30;99.90;;;;;;5049186;28;20564;-66
2022/01/11 01:11:13;;;;;;;48.70;28.43;;;2.40;99.90;;;;;;5049292;28;20471;-64
2022/01/11 01:13:40;;;;;;;40.17;29.33;;;2.40;99.90;;;;;;5049186;28;20468;-66
2022/01/11 01:16:08;;;;;;;38.03;26.50;;;2.30;99.90;;;;;;5048978;28;20445;-64
2022/01/11 01:18:36;;;;;;;38.63;26.80;;;2.30;99.90;;;;;;5049143;28;20964;-66
2022/01/11 01:21:03;;;;;;;46.73;30.37;;;2.30;99.90;;;;;;5048996;28;20440;-65
2022/01/11 01:23:32;;;;;;;42.67;25.93;;;2.40;99.90;;;;;;5048891;28;20479;-64
2022/01/11 01:25:59;;;;;;;39.37;27.13;;;2.40;99.90;;;;;;5048610;28;20440;-64
2022/01/11 01:28:26;;;;;;;39.43;26.67;;;2.30;99.90;;;;;;5049122;28;20571;-64
2022/01/11 01:30:55;;;;;;;43.23;28.60;;;2.40;99.90;;;;;;5052790;28;20444;-65
2022/01/11 01:33:22;;;;;;;38.70;28.17;;;2.30;99.90;;;;;;5052348;28;20961;-65
2022/01/11 01:35:53;;;;;;;40.57;27.40;;;2.30;99.90;;;;;;5052185;28;20436;-66
2022/01/11 01:38:23;;;;;;;42.30;28.53;;;2.30;99.90;;;;;;5052161;28;20444;-65
2022/01/11 01:40:53;;;;;;;45.10;27.40;;;2.30;99.90;;;;;;5052257;28;20444;-64
2022/01/11 01:43:20;;;;;;;38.30;25.80;;;2.30;99.90;;;;;;5052456;28;20487;-66
2022/01/11 01:45:49;;;;;;;40.37;26.80;;;2.30;99.90;;;;;;5052031;28;20450;-66
2022/01/11 01:48:16;;;;;;;37.07;26.20;;;2.30;99.90;;;;;;5052309;28;20480;-65
2022/01/11 01:50:44;;;;;;;37.23;26.37;;;2.30;99.90;;;;;;5052070;28;20488;-65
2022/01/11 01:53:14;;;;;;;40.23;27.87;;;2.40;99.90;;;;;;5052127;28;20476;-65
2022/01/11 01:55:42;;;;;;;40.03;27.50;;;2.40;99.90;;;;;;5051700;28;20452;-66
2022/01/11 01:58:11;;;;;;;42.67;26.93;;;2.40;99.90;;;;;;5051833;28;20447;-65
2022/01/11 02:00:41;;;;;;;36.20;25.80;;;2.40;99.90;;;;;;5051770;28;20452;-65
2022/01/11 02:03:11;;;;;;;37.43;24.77;;;2.40;99.90;;;;;;5052032;28;20514;-65
2022/01/11 02:05:41;;;;;;;39.73;26.17;;;2.40;99.90;;;;;;5051721;28;20805;-66
2022/01/11 02:08:10;;;;;;;33.37;24.70;;;2.40;99.90;;;;;;5051896;28;20447;-65
2022/01/11 02:10:38;;;;;;;38.70;26.90;;;2.30;99.90;;;;;;5051647;28;20470;-66
2022/01/11 02:13:08;;;;;;;38.80;26.07;;;2.30;99.90;;;;;;5051625;28;20436;-66
2022/01/11 02:15:36;;;;;;;40.23;27.60;;;2.40;99.90;;;;;;5051678;28;20451;-66
2022/01/11 02:18:11;;;;;;;38.43;27.17;;;2.40;99.90;;;;;;5051601;28;20571;-65
2022/01/11 02:20:40;;;;;;;40.50;26.60;;;2.40;99.90;;;;;;5051757;28;20467;-65
2022/01/11 02:23:07;;;;;;;36.10;26.30;;;2.40;99.90;;;;;;5051738;28;20482;-67
2022/01/11 02:25:35;;;;;;;40.43;25.23;;;2.30;99.90;;;;;;5051431;28;20428;-65
2022/01/11 02:28:02;;;;;;;45.80;27.87;;;2.40;99.90;;;;;;5051638;28;20531;-65
2022/01/11 02:30:32;;;;;;;35.73;26.17;;;2.40;99.90;;;;;;5051403;28;20510;-65
2022/01/11 02:33:00;;;;;;;41.60;25.07;;;2.40;99.90;;;;;;5051712;28;20437;-65
2022/01/11 02:35:27;;;;;;;37.23;24.70;;;2.30;99.90;;;;;;5051280;28;20455;-66
2022/01/11 02:37:55;;;;;;;38.47;24.60;;;2.30;99.90;;;;;;5051463;28;20463;-65
2022/01/11 02:40:22;;;;;;;39.60;26.43;;;2.40;99.90;;;;;;5050766;28;20472;-66
2022/01/11 02:42:49;;;;;;;34.77;24.80;;;2.30;99.90;;;;;;5051136;28;20460;-66
2022/01/11 02:45:18;;;;;;;32.83;23.00;;;2.30;99.90;;;;;;5050767;28;21231;-65
2022/01/11 02:47:46;;;;;;;33.83;24.90;;;2.20;99.90;;;;;;5051458;28;20436;-66
2022/01/11 02:50:13;;;;;;;40.07;27.10;;;2.30;99.90;;;;;;5051376;28;20528;-66
2022/01/11 02:52:40;;;;;;;33.90;26.10;;;2.30;99.90;;;;;;5051217;28;20523;-64
2022/01/11 02:55:11;;;;;;;35.83;25.60;;;2.30;99.90;;;;;;5050562;28;20445;-66
2022/01/11 02:57:38;;;;;;;35.67;26.17;;;2.40;99.90;;;;;;5050792;28;21056;-66
2022/01/11 03:00:06;;;;;;;39.77;26.80;;;2.40;99.90;;;;;;5050967;28;20456;-65
2022/01/11 03:02:33;;;;;;;36.67;25.33;;;2.40;99.90;;;;;;5050625;28;20448;-65
2022/01/11 03:05:00;;;;;;;40.00;26.67;;;2.40;99.90;;;;;;5050288;28;20480;-66
2022/01/11 03:07:27;;;;;;;33.70;25.20;;;2.40;99.90;;;;;;5050661;28;20448;-66
2022/01/11 03:10:02;;;;;;;38.73;25.63;;;2.30;99.90;;;;;;5050451;28;20462;-65
2022/01/11 03:12:31;;;;;;;49.13;26.40;;;2.30;99.90;;;;;;5051007;28;20440;-65
2022/01/11 03:14:58;;;;;;;35.10;24.57;;;2.40;99.90;;;;;;5050678;28;20520;-66
2022/01/11 03:17:26;;;;;;;39.67;25.37;;;2.40;99.90;;;;;;5050580;28;20445;-65
2022/01/11 03:19:53;;;;;;;32.70;24.37;;;2.40;99.90;;;;;;5050590;28;20476;-66
2022/01/11 03:22:19;;;;;;;40.60;26.77;;;2.40;99.90;;;;;;5050369;28;20441;-65
2022/01/11 03:24:47;;;;;;;33.50;25.20;;;2.40;99.90;;;;;;5050026;28;21119;-68
2022/01/11 03:27:14;;;;;;;41.33;27.70;;;2.40;99.90;;;;;;5050546;28;20433;-66
2022/01/11 03:29:42;;;;;;;30.70;23.73;;;2.50;99.90;;;;;;5050364;28;20551;-66
2022/01/11 03:32:12;;;;;;;39.00;25.33;;;2.50;99.90;;;;;;5050455;28;20433;-66
2022/01/11 03:34:41;;;;;;;32.90;23.80;;;2.40;99.90;;;;;;5050124;28;20910;-65
2022/01/11 03:37:10;;;;;;;35.10;25.30;;;2.40;99.90;;;;;;5050116;28;20432;-65
2022/01/11 03:39:37;;;;;;;36.80;26.60;;;2.40;99.90;;;;;;5050179;28;21005;-65
2022/01/11 03:42:04;;;;;;;38.57;25.10;;;2.40;99.90;;;;;;5050286;28;20433;-63
2022/01/11 03:44:30;;;;;;;43.63;25.67;;;2.40;99.90;;;;;;5049875;28;20483;-65
2022/01/11 03:46:59;;;;;;;42.67;28.67;;;2.40;99.90;;;;;;5050251;28;20447;-66
2022/01/11 03:49:25;;;;;;;44.87;28.27;;;2.30;99.90;;;;;;5049894;28;20457;-67
2022/01/11 03:51:52;;;;;;;41.17;27.17;;;2.30;99.90;;;;;;5049444;28;20442;-66
2022/01/11 03:54:25;;;;;;;39.33;28.73;;;2.30;99.90;;;;;;5049705;28;20425;-66
2022/01/11 03:56:52;;;;;;;35.53;26.73;;;2.30;99.90;;;;;;5049674;28;20491;-66
2022/01/11 03:59:20;;;;;;;38.97;27.43;;;2.30;99.90;;;;;;5050052;28;20459;-66
2022/01/11 04:01:47;;;;;;;41.23;25.27;;;2.40;99.90;;;;;;5050152;28;20459;-66
2022/01/11 04:04:15;;;;;;;38.53;26.13;;;2.40;99.90;;;;;;5049691;28;21102;-65
2022/01/11 04:06:42;;;;;;;34.37;25.67;;;2.40;99.90;;;;;;5049898;28;20433;-65
2022/01/11 04:09:11;;;;;;;37.10;25.27;;;2.30;99.90;;;;;;5049810;28;20460;-65
2022/01/11 04:11:38;;;;;;;42.50;28.77;;;2.30;99.90;;;;;;5049814;28;20452;-65
2022/01/11 04:14:05;;;;;;;41.40;27.67;;;2.40;99.90;;;;;;5049634;28;20448;-66
2022/01/11 04:16:32;;;;;;;35.10;27.20;;;2.30;99.90;;;;;;5049129;28;20451;-66
2022/01/11 04:18:59;;;;;;;37.53;27.77;;;2.30;99.90;;;;;;5049836;28;20483;-66
2022/01/11 04:21:27;;;;;;;36.60;26.77;;;2.30;99.90;;;;;;5050126;28;20432;-65
2022/01/11 04:23:54;;;;;;;41.13;26.93;;;2.40;99.90;;;;;;5049386;28;20487;-65
2022/01/11 04:26:21;;;;;;;40.80;27.80;;;2.40;99.90;;;;;;5049221;28;20957;-64
2022/01/11 04:28:48;;;;;;;41.13;28.37;;;2.30;99.90;;;;;;5049251;28;20468;-64
2022/01/11 04:31:15;;;;;;;44.23;29.80;;;2.30;99.90;;;;;;5049349;28;20433;-63
2022/01/11 04:33:43;;;;;;;36.07;26.20;;;2.20;99.90;;;;;;5049499;28;20432;-64
2022/01/11 04:39:01;;;;;;;45.90;30.27;;;2.20;99.90;;;;;;6029466;22;21260;-64
2022/01/11 04:41:28;;;;;;;43.50;28.27;;;2.10;99.90;;;;;;5024920;28;20445;-64
2022/01/11 04:43:55;;;;;;;42.87;29.97;;;2.10;99.90;;;;;;5028777;28;20491;-64
2022/01/11 04:46:22;;;;;;;47.60;29.00;;;2.10;99.90;;;;;;5029377;28;20493;-64
2022/01/11 04:48:49;;;;;;;46.13;28.77;;;2.20;99.90;;;;;;5028704;28;20465;-63
2022/01/11 04:51:17;;;;;;;45.50;27.93;;;2.10;99.90;;;;;;5029390;28;20449;-64
2022/01/11 04:53:43;;;;;;;37.37;27.40;;;2.10;99.90;;;;;;5029006;28;20445;-64
2022/01/11 04:56:11;;;;;;;51.30;29.97;;;2.20;99.90;;;;;;5029078;28;20445;-63
2022/01/11 04:58:38;;;;;;;50.93;31.30;;;2.20;99.90;;;;;;5028725;28;20520;-64
2022/01/11 05:01:05;;;;;;;43.47;29.50;;;2.20;99.90;;;;;;5028761;28;20446;-63
2022/01/11 05:03:32;;;;;;;42.47;29.47;;;2.10;99.90;;;;;;5029188;28;20456;-64
2022/01/11 05:05:59;;;;;;;42.33;30.00;;;2.20;99.90;;;;;;5032949;28;20449;-64
2022/01/11 05:11:01;;;;;;;46.10;29.23;;;2.20;99.90;;;;;;5275871;23;20578;-63
2022/01/11 05:13:31;;;;;;;42.33;30.27;;;2.20;99.90;;;;;;5020367;28;20445;-63
2022/01/11 05:15:59;;;;;;;41.47;29.20;;;2.30;99.90;;;;;;5013438;28;20464;-63
2022/01/11 05:18:26;;;;;;;45.07;29.80;;;2.30;99.90;;;;;;5013595;28;20454;-61
2022/01/11 05:20:53;;;;;;;41.90;29.47;;;2.30;99.90;;;;;;4999047;28;20467;-62
2022/01/11 05:23:20;;;;;;;44.10;30.43;;;2.30;99.90;;;;;;4993859;28;20443;-62
2022/01/11 05:25:47;;;;;;;40.40;29.67;;;2.30;99.90;;;;;;4993420;28;20492;-62
2022/01/11 05:28:14;;;;;;;41.60;30.20;;;2.40;99.90;;;;;;4994000;28;20473;-63
2022/01/11 05:30:42;;;;;;;42.23;28.97;;;2.40;99.90;;;;;;4993019;28;20835;-65
2022/01/11 05:33:09;;;;;;;39.30;28.20;;;2.40;99.90;;;;;;4994197;28;20451;-64
2022/01/11 05:35:35;;;;;;;36.00;26.47;;;2.40;99.90;;;;;;4994176;28;20451;-62
2022/01/11 05:38:02;;;;;;;40.20;28.47;;;2.40;99.90;;;;;;4994426;28;20454;-62
2022/01/11 05:40:29;;;;;;;42.50;27.67;;;2.40;99.90;;;;;;4993958;28;20467;-64
2022/01/11 05:42:56;;;;;;;41.23;27.37;;;2.40;99.90;;;;;;4994246;28;20462;-63
2022/01/11 05:45:23;;;;;;;41.70;26.97;;;2.50;99.90;;;;;;4993253;28;20485;-65
2022/01/11 05:47:52;;;;;;;38.63;28.37;;;2.50;99.90;;;;;;4993411;28;20816;-64
2022/01/11 05:50:20;;;;;;;43.00;26.30;;;2.50;99.90;;;;;;4992862;28;20477;-65
2022/01/11 05:52:48;;;;;;;37.63;26.80;;;2.50;99.90;;;;;;4992609;28;20447;-62
2022/01/11 05:55:16;;;;;;;37.80;26.60;;;2.50;99.90;;;;;;4986572;28;20790;-64
2022/01/11 05:57:43;;;;;;;36.97;26.37;;;2.50;99.90;;;;;;4982251;28;20587;-63
2022/01/11 06:00:13;;;;;;;37.50;25.90;;;2.50;99.90;;;;;;4988675;28;20970;-63
2022/01/11 06:02:41;;;;;;;37.90;26.30;;;2.50;99.90;;;;;;4986369;28;20498;-63
2022/01/11 06:05:10;;;;;;;41.80;28.30;;;2.40;99.90;;;;;;4979333;28;21033;-63
2022/01/11 06:07:39;;;;;;;38.07;27.60;;;2.30;99.90;;;;;;4979547;28;20960;-63
2022/01/11 06:10:07;;;;;;;40.80;26.60;;;2.30;99.90;;;;;;4986197;28;20549;-63
2022/01/11 06:12:34;;;;;;;39.90;26.70;;;2.40;99.90;;;;;;4990650;28;20984;-62
2022/01/11 06:15:01;;;;;;;38.70;26.53;;;2.40;99.90;;;;;;4988795;28;20445;-64
2022/01/11 06:17:28;;;;;;;44.53;27.30;;;2.40;99.90;;;;;;4989982;28;20440;-61
2022/01/11 06:19:55;;;;;;;42.40;26.60;;;2.50;99.90;;;;;;4986812;28;20465;-63
2022/01/11 06:22:24;;;;;;;38.17;27.10;;;2.40;99.90;;;;;;4991835;28;20443;-64
2022/01/11 06:24:51;;;;;;;39.60;26.27;;;2.40;99.90;;;;;;4991795;28;20949;-62
2022/01/11 06:27:18;;;;;;;40.00;26.63;;;2.40;99.90;;;;;;4991865;28;20547;-62
2022/01/11 06:29:45;;;;;;;35.90;26.13;;;2.40;99.90;;;;;;4991930;28;20509;-64
2022/01/11 06:32:12;;;;;;;43.73;27.60;;;2.40;99.90;;;;;;4992532;28;20454;-62
2022/01/11 06:34:39;;;;;;;39.57;25.83;;;2.40;99.90;;;;;;4991779;28;20526;-64
2022/01/11 06:37:06;;;;;;;38.30;25.27;;;2.40;99.90;;;;;;4991990;28;20460;-64
2022/01/11 06:39:36;;;;;;;37.47;27.97;;;2.40;99.90;;;;;;4991424;28;20995;-62
2022/01/11 06:42:04;;;;;;;48.40;27.73;;;2.50;99.90;;;;;;4992224;28;20455;-62
2022/01/11 06:44:31;;;;;;;37.07;26.73;;;2.50;99.90;;;;;;4991840;28;20478;-63
2022/01/11 06:46:57;;;;;;;37.40;27.13;;;2.40;99.90;;;;;;4991607;28;20944;-63
2022/01/11 06:49:24;;;;;;;38.27;26.97;;;2.40;99.90;;;;;;4991258;28;20457;-62
2022/01/11 06:51:51;;;;;;;40.93;25.73;;;2.40;99.90;;;;;;4991731;28;20455;-63
2022/01/11 06:54:18;;;;;;;35.50;26.40;;;2.40;99.90;;;;;;4991324;28;20439;-65
2022/01/11 06:56:46;;;;;;;37.97;27.07;;;2.30;99.90;;;;;;4991655;28;20450;-61
2022/01/11 06:59:13;;;;;;;43.20;30.30;;;2.20;99.90;;;;;;4990978;28;20440;-62
2022/01/11 07:01:40;;;;;;;43.60;28.50;;;2.10;99.90;;;;;;4991601;28;20555;-64
2022/01/11 07:04:07;;;;;;;37.83;28.20;;;2.10;99.90;;;;;;4991558;28;20453;-63
2022/01/11 07:06:33;;;;;;;41.30;28.40;;;2.10;99.90;;;;;;4991287;28;20439;-60
2022/01/11 07:09:01;;;;;;;47.93;29.87;;;2.20;99.90;;;;;;4991428;28;20934;-61
2022/01/11 07:11:27;;;;;;;39.47;29.10;;;2.20;99.90;;;;;;4991162;28;20840;-62
2022/01/11 07:13:56;;;;;;;37.90;28.00;;;2.20;99.90;;;;;;4991556;28;20453;-63
2022/01/11 07:16:23;;;;;;;39.70;27.03;;;2.20;99.90;;;;;;4991520;28;20439;-62
2022/01/11 07:18:50;;;;;;;39.53;28.43;;;2.20;99.90;;;;;;4991488;28;20443;-62
2022/01/11 07:21:17;;;;;;;45.07;29.97;;;2.20;99.90;;;;;;4991057;28;20475;-62
2022/01/11 07:23:43;;;;;;;39.53;25.83;;;2.20;99.90;;;;;;4991435;28;20453;-62
2022/01/11 07:26:10;;;;;;;42.87;29.70;;;2.20;99.90;;;;;;4991324;28;20487;-64
2022/01/11 07:28:37;;;;;;;37.50;27.57;;;2.30;99.90;;;;;;4991475;28;20473;-64
2022/01/11 07:31:05;;;;;;;39.20;27.60;;;2.40;99.90;;;;;;4990641;28;20462;-62
2022/01/11 07:33:32;;;;;;;36.87;27.67;;;2.40;99.90;;;;;;4991304;28;20443;-61
2022/01/11 07:36:00;;;;;;;46.63;27.50;;;2.50;99.90;;;;;;4991072;28;20537;-62
2022/01/11 07:38:26;;;;;;;45.40;27.80;;;2.50;99.90;;;;;;4991335;28;20439;-62
2022/01/11 07:40:53;;;;;;;46.10;30.57;;;2.50;99.90;;;;;;4990689;28;20475;-63
2022/01/11 07:43:20;;;;;;;45.60;29.57;;;2.50;99.90;;;;;;4990875;28;20441;-63
2022/01/11 07:45:47;;;;;;;47.13;30.33;;;2.60;99.90;;;;;;4990859;28;20986;-63
2022/01/11 07:48:15;;;;;;;45.43;28.73;;;2.70;99.90;;;;;;4990966;28;20531;-64
2022/01/11 07:50:42;;;;;;;40.43;28.87;;;2.80;99.90;;;;;;4990591;28;20966;-64
2022/01/11 07:53:09;;;;;;;39.97;28.90;;;2.80;99.90;;;;;;4991119;28;20440;-59
2022/01/11 07:55:36;;;;;;;44.07;28.57;;;2.80;99.90;;;;;;4991144;28;20442;-63
2022/01/11 07:58:03;;;;;;;37.37;27.47;;;2.80;99.90;;;;;;4990891;28;20439;-60
2022/01/11 08:00:31;;;;;;;38.80;28.33;;;2.90;99.90;;;;;;4990071;28;21014;-62
2022/01/11 08:02:58;;;;;;;43.20;26.77;;;3.00;99.90;;;;;;4990227;28;20447;-61
2022/01/11 08:05:26;;;;;;;37.50;25.40;;;3.10;99.90;;;;;;4990664;28;20479;-64
2022/01/11 08:07:53;;;;;;;36.80;25.83;;;3.20;99.90;;;;;;4990463;28;20443;-64
2022/01/11 08:10:20;;;;;;;33.33;25.37;;;3.20;99.90;;;;;;4990053;28;20451;-64
2022/01/11 08:12:47;;;;;;;38.33;27.47;;;3.20;99.90;;;;;;4990208;28;20817;-64
2022/01/11 08:15:13;;;;;;;40.77;25.80;;;3.30;99.90;;;;;;4990526;28;20940;-64
2022/01/11 08:17:41;;;;;;;37.90;27.27;;;3.30;99.90;;;;;;4990259;28;21114;-63
2022/01/11 08:20:09;;;;;;;35.37;27.40;;;3.40;99.90;;;;;;4989624;28;20469;-63
2022/01/11 08:22:37;;;;;;;37.90;26.97;;;3.30;99.90;;;;;;4990490;28;20539;-63
2022/01/11 08:25:05;;;;;;;40.10;26.90;;;3.40;99.90;;;;;;4990798;28;20998;-62
2022/01/11 08:27:33;;;;;;;38.17;29.87;;;3.50;99.90;;;;;;4990870;28;20450;-63
2022/01/11 08:30:00;;;;;;;32.80;25.10;;;3.60;99.90;;;;;;4990397;28;20459;-63
2022/01/11 08:32:27;;;;;;;34.33;26.17;;;3.60;99.90;;;;;;4991400;28;20445;-63
2022/01/11 08:34:54;;;;;;;28.30;24.00;;;3.60;99.90;;;;;;4990722;28;20443;-63
2022/01/11 08:37:21;;;;;;;35.87;26.30;;;3.70;99.90;;;;;;4990860;28;20443;-63
2022/01/11 08:39:49;;;;;;;36.30;25.47;;;3.70;99.90;;;;;;4992660;28;20463;-63
2022/01/11 08:42:16;;;;;;;35.30;25.80;;;3.50;99.90;;;;;;4994861;28;20453;-65
2022/01/11 08:44:45;;;;;;;37.03;25.47;;;3.60;99.90;;;;;;4994555;28;20498;-64
2022/01/11 08:47:13;;;;;;;35.97;26.73;;;3.70;99.90;;;;;;4994690;28;20455;-64
2022/01/11 08:49:39;;;;;;;44.23;28.53;;;3.80;99.90;;;;;;4993979;28;20483;-64
2022/01/11 08:52:07;;;;;;;36.30;26.30;;;3.60;99.90;;;;;;4994457;28;20447;-64
2022/01/11 08:54:34;;;;;;;37.57;26.27;;;3.60;99.90;;;;;;4994441;28;20441;-61
2022/01/11 08:57:03;;;;;;;38.63;28.10;;;3.60;99.90;;;;;;4994392;28;20542;-64
2022/01/11 08:59:31;;;;;;;31.50;26.17;;;3.70;99.90;;;;;;4994185;28;20449;-65
2022/01/11 09:02:00;;;;;;;36.63;29.03;;;3.90;99.90;;;;;;4993831;28;20475;-64
2022/01/11 09:04:28;;;;;;;39.53;28.20;;;3.70;99.90;;;;;;4994169;28;20457;-63
2022/01/11 09:06:57;;;;;;;33.30;25.10;;;3.70;99.90;;;;;;4993949;28;20490;-64
2022/01/11 09:09:24;;;;;;;36.00;28.60;;;3.80;99.90;;;;;;4994049;28;20554;-64
2022/01/11 09:11:51;;;;;;;35.23;26.63;;;4.00;99.90;;;;;;4993885;28;20466;-64
2022/01/11 09:14:20;;;;;;;35.60;24.93;;;4.10;99.90;;;;;;4994133;28;20443;-64
2022/01/11 09:16:47;;;;;;;38.53;27.10;;;4.30;99.90;;;;;;4994567;28;20511;-64
2022/01/11 09:19:15;;;;;;;36.03;25.47;;;4.50;99.90;;;;;;4994603;28;20479;-65
2022/01/11 09:21:42;;;;;;;33.50;26.67;;;4.50;99.90;;;;;;4993850;28;20461;-64
2022/01/11 09:24:10;;;;;;;33.90;25.13;;;4.70;99.90;;;;;;4993515;28;20793;-66
2022/01/11 09:26:38;;;;;;;31.10;24.13;;;4.60;99.90;;;;;;4993795;28;20521;-65
2022/01/11 09:29:05;;;;;;;33.10;25.47;;;4.50;99.90;;;;;;4993359;28;20482;-65
2022/01/11 09:31:33;;;;;;;29.00;24.07;;;4.60;99.90;;;;;;4993179;28;20471;-64
2022/01/11 09:34:00;;;;;;;28.10;22.27;;;4.60;99.90;;;;;;4993459;28;20443;-63
2022/01/11 09:36:28;;;;;;;32.63;23.10;;;4.60;99.90;;;;;;4993351;28;20474;-65
2022/01/11 09:38:56;;;;;;;27.90;22.90;;;4.80;99.90;;;;;;4993355;28;20447;-64
2022/01/11 09:41:23;;;;;;;30.30;20.70;;;4.90;99.90;;;;;;4993254;28;20470;-63
2022/01/11 09:43:50;;;;;;;27.73;20.40;;;5.00;99.90;;;;;;4993330;28;20443;-65
2022/01/11 09:46:17;;;;;;;26.20;21.20;;;5.10;99.90;;;;;;4993084;28;20487;-65
2022/01/11 09:48:48;;;;;;;25.17;20.33;;;5.10;99.90;;;;;;4993728;28;20445;-65
2022/01/11 09:51:15;;;;;;;30.70;23.73;;;5.00;99.90;;;;;;4991489;28;20471;-65
2022/01/11 09:53:42;;;;;;;29.90;23.10;;;4.80;99.90;;;;;;4993597;28;20447;-64
2022/01/11 09:56:10;;;;;;;30.77;23.20;;;4.70;99.90;;;;;;4993580;28;20438;-65
2022/01/11 09:58:37;;;;;;;33.03;23.80;;;4.70;99.90;;;;;;4993447;28;20451;-65
2022/01/11 10:01:05;;;;;;;28.93;24.10;;;4.70;99.90;;;;;;4993134;28;20463;-63
2022/01/11 10:03:32;;;;;;;31.67;24.20;;;4.80;99.90;;;;;;4993239;28;20448;-64
2022/01/11 10:09:07;;;;;;;28.67;22.97;;;5.00;99.90;;;;;;5149199;27;20554;-62
2022/01/11 10:11:35;;;;;;;34.50;23.97;;;4.90;99.90;;;;;;5148785;27;20943;-63
2022/01/11 10:14:21;;;;;;;29.10;23.33;;;4.70;99.90;;;;;;5149236;27;20799;-62
2022/01/11 10:16:48;;;;;;;28.97;22.13;;;4.80;99.90;;;;;;5149183;27;20436;-63
2022/01/11 10:19:21;;;;;;;31.20;22.33;;;5.10;99.90;;;;;;5148446;27;20432;-62
2022/01/11 10:21:49;;;;;;;34.00;21.60;;;5.30;99.90;;;;;;5149312;27;20436;-65
2022/01/11 10:24:33;;;;;;;32.07;22.80;;;5.30;99.90;;;;;;5148979;27;20476;-63
2022/01/11 10:27:02;;;;;;;29.43;22.00;;;5.40;99.90;;;;;;5148730;27;20480;-64
2022/01/11 10:29:37;;;;;;;29.60;22.87;;;5.50;99.90;;;;;;5148326;27;20432;-63
2022/01/11 10:32:13;;;;;;;33.80;24.63;;;5.40;99.90;;;;;;5148533;27;21002;-63
2022/01/11 10:34:41;;;;;;;32.80;25.20;;;5.60;99.90;;;;;;5148311;27;20446;-62
2022/01/11 10:37:08;;;;;;;30.47;23.03;;;5.90;99.90;;;;;;5147955;27;20442;-63
2022/01/11 10:39:39;;;;;;;33.30;23.87;;;5.90;99.90;;;;;;5148229;27;20464;-63
2022/01/11 10:42:07;;;;;;;29.73;22.47;;;5.90;99.90;;;;;;5148638;27;20440;-64
2022/01/11 10:44:52;;;;;;;28.33;21.60;;;6.00;99.90;;;;;;5148929;27;20432;-63
2022/01/11 10:47:23;;;;;;;29.30;21.20;;;6.30;99.90;;;;;;5149156;27;20498;-64
2022/01/11 10:49:55;;;;;;;27.77;21.63;;;6.40;99.90;;;;;;5148295;27;20460;-63
2022/01/11 10:52:24;;;;;;;29.77;20.70;;;6.60;99.90;;;;;;5148665;27;20440;-64
2022/01/11 10:54:53;;;;;;;27.03;19.90;;;6.70;99.90;;;;;;5148919;27;20432;-64
2022/01/11 10:57:23;;;;;;;27.40;21.80;;;6.80;99.90;;;;;;5148412;27;20431;-64
2022/01/11 11:00:16;;;;;;;23.17;19.03;;;6.90;99.90;;;;;;5147815;27;20985;-64
2022/01/11 11:02:45;;;;;;;24.40;20.50;;;6.90;99.90;;;;;;5148302;27;20515;-64
2022/01/11 11:05:23;;;;;;;26.93;19.27;;;6.90;99.90;;;;;;5148892;27;20440;-65
2022/01/11 11:07:59;;;;;;;28.27;20.17;;;6.70;99.90;;;;;;5148090;27;20472;-65
2022/01/11 11:10:43;;;;;;;26.07;20.57;;;6.60;99.90;;;;;;5148070;27;20448;-65
2022/01/11 11:13:18;;;;;;;26.30;19.67;;;6.70;99.90;;;;;;5148476;27;20432;-64
2022/01/11 11:15:45;;;;;;;27.50;19.93;;;6.80;99.90;;;;;;5148084;27;20439;-64
2022/01/11 11:18:25;;;;;;;21.37;17.00;;;6.80;99.90;;;;;;5145865;27;20483;-65
2022/01/11 11:20:51;;;;;;;22.43;17.07;;;7.10;99.90;;;;;;5133569;27;21087;-63
2022/01/11 11:23:19;;;;;;;18.90;15.93;;;7.20;99.90;;;;;;5134089;27;20464;-63
2022/01/11 11:25:47;;;;;;;23.00;17.70;;;7.40;99.90;;;;;;5134220;27;20436;-62
2022/01/11 11:28:15;;;;;;;20.10;15.50;;;7.70;99.90;;;;;;5133763;27;20584;-64
2022/01/11 11:30:42;;;;;;;20.13;15.20;;;7.60;99.90;;;;;;5133209;27;20468;-64
2022/01/11 11:33:11;;;;;;;19.10;15.00;;;7.40;99.90;;;;;;5133851;27;20443;-60
2022/01/11 11:35:38;;;;;;;15.53;12.20;;;7.40;99.90;;;;;;5133671;27;20441;-62
2022/01/11 11:38:09;;;;;;;20.57;12.63;;;7.20;99.90;;;;;;5133508;27;20436;-63
2022/01/11 11:40:38;;;;;;;19.50;12.73;;;7.00;99.90;;;;;;5133612;27;20791;-64
2022/01/11 11:43:06;;;;;;;11.73;8.83;;;7.20;99.90;;;;;;5133412;27;20443;-64
2022/01/11 11:45:36;;;;;;;10.30;7.47;;;7.40;99.90;;;;;;5133108;27;20451;-64
2022/01/11 11:48:05;;;;;;;12.67;10.10;;;7.40;99.90;;;;;;5132973;27;21002;-63
2022/01/11 11:50:33;;;;;;;13.90;10.30;;;7.30;99.90;;;;;;5133175;27;20807;-63
2022/01/11 11:53:00;;;;;;;12.70;8.77;;;7.40;99.90;;;;;;5133412;27;20429;-64
2022/01/11 11:55:29;;;;;;;10.90;8.33;;;7.50;99.90;;;;;;5133293;27;20445;-64
2022/01/11 11:57:58;;;;;;;11.93;8.40;;;7.60;99.90;;;;;;5132611;27;20431;-63
2022/01/11 12:00:28;;;;;;;14.00;8.87;;;7.70;99.90;;;;;;5132335;27;20544;-63
2022/01/11 12:02:58;;;;;;;8.63;5.67;;;7.80;99.90;;;;;;5132498;27;20433;-63
2022/01/11 12:05:39;;;;;;;6.83;5.63;;;7.90;99.90;;;;;;5132553;27;20441;-63
2022/01/11 12:08:33;;;;;;;6.10;3.67;;;7.60;99.90;;;;;;5132624;27;20481;-64
2022/01/11 12:11:03;;;;;;;5.10;4.00;;;7.40;99.90;;;;;;5132998;27;20480;-64
2022/01/11 12:13:52;;;;;;;8.60;4.70;;;7.30;99.90;;;;;;5134081;27;20456;-65
2022/01/11 12:16:42;;;;;;;6.83;5.20;;;7.40;99.90;;;;;;5129527;27;20931;-63
2022/01/11 12:19:40;;;;;;;9.00;7.37;;;7.50;99.90;;;;;;5133151;27;20479;-63
2022/01/11 12:22:19;;;;;;;9.33;7.40;;;7.00;99.90;;;;;;5132471;27;20820;-61
2022/01/11 12:24:48;;;;;;;8.30;5.57;;;7.00;99.90;;;;;;5132184;27;20447;-61
2022/01/11 12:27:18;;;;;;;8.87;6.40;;;7.10;99.90;;;;;;5131933;27;20472;-63
2022/01/11 12:29:54;;;;;;;6.53;5.10;;;7.20;99.90;;;;;;5131622;27;20867;-61
2022/01/11 12:32:23;;;;;;;4.90;3.83;;;7.30;99.90;;;;;;5131878;27;20448;-63
2022/01/11 12:34:56;;;;;;;7.57;4.93;;;7.30;99.90;;;;;;5129767;27;20447;-58
2022/01/11 12:37:32;;;;;;;8.97;5.23;;;7.30;99.90;;;;;;5132804;27;20524;-63
2022/01/11 12:40:26;;;;;;;7.53;5.23;;;7.30;99.90;;;;;;5132786;27;20540;-65
2022/01/11 12:42:59;;;;;;;5.87;4.67;;;7.30;99.90;;;;;;5132771;27;20436;-63
2022/01/11 12:46:11;;;;;;;7.27;4.20;;;7.30;99.90;;;;;;5132537;27;20468;-63
2022/01/11 12:49:00;;;;;;;6.07;4.50;;;7.40;99.90;;;;;;5068777;28;21033;-63
2022/01/11 12:51:35;;;;;;;5.80;4.17;;;7.30;99.90;;;;;;5125757;27;20504;-64
2022/01/11 12:54:28;;;;;;;5.83;4.30;;;7.30;99.90;;;;;;5131855;27;20444;-63
2022/01/11 12:56:57;;;;;;;8.80;4.73;;;7.20;99.90;;;;;;5116844;27;20433;-64